KA4UR UKLL-UKLL
Flight info
| Callsign | KA4UR |
|---|---|
| Flight time | 0h 11m |
| Altitude | 3000 |
| Route | TRAFFIC PATTERN |
| Aircraft | C172/L-V/N |
Departure
| Time | 2026-04-22 18:57 |
|---|---|
| Airport | Lviv International Airport (UKLL) |
Arrival
| Time | 2026-04-22 19:08 |
|---|---|
| Airport | Lviv International Airport (UKLL) |
| Time | Latitude | Longitude | Altitude | Speed | Heading |
|---|---|---|---|---|---|
| 2026-04-22 18:29 | 49.81705 | 23.95226 | 1044 ft | 0 kts | 158° |
| 2026-04-22 18:46 | 49.81703 | 23.95226 | 1060 ft | 2 kts | 158° |
| 2026-04-22 18:46 | 49.81652 | 23.95264 | 1060 ft | 0 kts | 168° |
| 2026-04-22 18:46 | 49.81620 | 23.95257 | 1060 ft | 6 kts | 211° |
| 2026-04-22 18:47 | 49.81571 | 23.95289 | 1060 ft | 14 kts | 134° |
| 2026-04-22 18:47 | 49.81487 | 23.95414 | 1060 ft | 16 kts | 135° |
| 2026-04-22 18:47 | 49.81397 | 23.95496 | 1060 ft | 18 kts | 158° |
| 2026-04-22 18:47 | 49.81321 | 23.95582 | 1060 ft | 2 kts | 134° |
| 2026-04-22 18:52 | 49.81313 | 23.95596 | 1060 ft | 7 kts | 131° |
| 2026-04-22 18:52 | 49.81299 | 23.95617 | 1060 ft | 10 kts | 143° |
| 2026-04-22 18:53 | 49.81256 | 23.95605 | 1060 ft | 0 kts | 232° |
| 2026-04-22 18:54 | 49.81252 | 23.95597 | 1060 ft | 5 kts | 227° |
| 2026-04-22 18:54 | 49.81208 | 23.95508 | 1061 ft | 11 kts | 258° |
| 2026-04-22 18:54 | 49.81212 | 23.95480 | 1061 ft | 0 kts | 317° |
| 2026-04-22 18:55 | 49.81212 | 23.95479 | 1061 ft | 0 kts | 317° |
| 2026-04-22 18:56 | 49.81247 | 23.95427 | 1061 ft | 26 kts | 317° |
| 2026-04-22 18:56 | 49.81496 | 23.95052 | 1079 ft | 67 kts | 319° |
| 2026-04-22 18:56 | 49.81839 | 23.94485 | 1221 ft | 78 kts | 319° |
| 2026-04-22 18:57 | 49.82201 | 23.93858 | 1449 ft | 75 kts | 312° |
| 2026-04-22 18:57 | 49.82093 | 23.93060 | 1473 ft | 99 kts | 229° |
| 2026-04-22 18:57 | 49.81518 | 23.92360 | 1559 ft | 109 kts | 223° |
| 2026-04-22 18:57 | 49.80819 | 23.92068 | 1768 ft | 108 kts | 160° |
| 2026-04-22 18:58 | 49.80263 | 23.92818 | 1950 ft | 111 kts | 124° |
| 2026-04-22 18:58 | 49.79843 | 23.93884 | 1975 ft | 126 kts | 108° |
| 2026-04-22 18:58 | 49.79423 | 23.95040 | 2101 ft | 127 kts | 139° |
| 2026-04-22 18:58 | 49.78661 | 23.95780 | 2168 ft | 131 kts | 146° |
| 2026-04-22 18:59 | 49.77899 | 23.96509 | 2311 ft | 129 kts | 147° |
| 2026-04-22 18:59 | 49.77142 | 23.97187 | 2406 ft | 125 kts | 148° |
| 2026-04-22 18:59 | 49.76388 | 23.97834 | 2590 ft | 122 kts | 150° |
| 2026-04-22 18:59 | 49.75633 | 23.98423 | 2736 ft | 122 kts | 154° |
| 2026-04-22 19:00 | 49.74842 | 23.98920 | 2831 ft | 128 kts | 160° |
| 2026-04-22 19:00 | 49.73984 | 23.99433 | 2830 ft | 133 kts | 160° |
| 2026-04-22 19:00 | 49.73142 | 23.99909 | 2961 ft | 128 kts | 159° |
| 2026-04-22 19:00 | 49.72281 | 24.00260 | 3037 ft | 126 kts | 181° |
| 2026-04-22 19:01 | 49.71590 | 23.99733 | 3233 ft | 115 kts | 252° |
| 2026-04-22 19:01 | 49.71783 | 23.98570 | 2993 ft | 122 kts | 320° |
| 2026-04-22 19:01 | 49.72555 | 23.98270 | 3034 ft | 111 kts | 8° |
| 2026-04-22 19:01 | 49.73152 | 23.98954 | 3096 ft | 115 kts | 54° |
| 2026-04-22 19:02 | 49.73369 | 24.00227 | 2963 ft | 127 kts | 82° |
| 2026-04-22 19:02 | 49.73255 | 24.01591 | 2871 ft | 136 kts | 103° |
| 2026-04-22 19:02 | 49.72565 | 24.02574 | 2731 ft | 145 kts | 165° |
| 2026-04-22 19:02 | 49.71540 | 24.02360 | 2436 ft | 148 kts | 212° |
| 2026-04-22 19:03 | 49.70859 | 24.01380 | 2476 ft | 130 kts | 243° |
| 2026-04-22 19:03 | 49.70524 | 24.00068 | 2302 ft | 132 kts | 262° |
| 2026-04-22 19:03 | 49.70671 | 23.98883 | 2428 ft | 106 kts | 328° |
| 2026-04-22 19:03 | 49.71268 | 23.99338 | 2341 ft | 129 kts | 72° |
| 2026-04-22 19:04 | 49.71079 | 24.00712 | 2306 ft | 138 kts | 127° |
| 2026-04-22 19:04 | 49.70299 | 24.01134 | 2630 ft | 114 kts | 215° |
| 2026-04-22 19:04 | 49.70271 | 24.00238 | 2826 ft | 95 kts | 327° |
| 2026-04-22 19:04 | 49.70979 | 23.99919 | 2662 ft | 121 kts | 353° |
| 2026-04-22 19:05 | 49.71801 | 24.00016 | 2778 ft | 118 kts | 8° |
| 2026-04-22 19:05 | 49.72602 | 24.00301 | 2790 ft | 122 kts | 12° |
| 2026-04-22 19:05 | 49.73417 | 24.00645 | 2742 ft | 118 kts | 12° |
| 2026-04-22 19:05 | 49.74213 | 24.00928 | 2614 ft | 119 kts | 11° |
| 2026-04-22 19:06 | 49.75054 | 24.01098 | 2383 ft | 124 kts | 3° |
| 2026-04-22 19:06 | 49.75901 | 24.01099 | 2216 ft | 122 kts | 358° |
| 2026-04-22 19:06 | 49.76744 | 24.00933 | 1983 ft | 125 kts | 346° |
| 2026-04-22 19:07 | 49.78313 | 23.99690 | 1556 ft | 128 kts | 325° |
| 2026-04-22 19:07 | 49.78985 | 23.98821 | 1377 ft | 126 kts | 324° |
| 2026-04-22 19:07 | 49.79558 | 23.97869 | 1328 ft | 117 kts | 308° |
| 2026-04-22 19:07 | 49.80130 | 23.97072 | 1166 ft | 110 kts | 325° |
| 2026-04-22 19:08 | 49.80673 | 23.96284 | 1077 ft | 100 kts | 320° |
| 2026-04-22 19:08 | 49.81123 | 23.95624 | 1060 ft | 78 kts | 318° |
| 2026-04-22 19:08 | 49.81467 | 23.95109 | 1058 ft | 61 kts | 315° |
| 2026-04-22 19:08 | 49.80952 | 23.95861 | 1058 ft | 0 kts | 320° |